Time;durP1;ratioP1;P1;durP2;ratioP2;P2;SDS_P1;SDS_P2;PMS_P1;PMS_P2;Temp;Humidity;BMP_temperature;BMP_pressure;BME280_temperature;BME280_humidity;BME280_pressure;Samples;Min_cycle;Max_cycle;Signal;HPM_P1;HPM_P2
2022/03/22 00:02:17;;;;;;;19.83;13.23;;;;;;;19.01;42.25;103194.34;5020172;28;20041;-40
2022/03/22 00:04:44;;;;;;;22.52;12.63;;;;;;;18.98;42.34;103193.59;5022890;28;20127;-40
2022/03/22 00:07:10;;;;;;;18.85;12.82;;;;;;;18.97;43.03;103193.69;5023767;28;20165;-41
2022/03/22 00:09:37;;;;;;;18.35;12.70;;;;;;;18.96;42.36;103192.81;5020691;28;20044;-41
2022/03/22 00:12:05;;;;;;;18.35;12.23;;;;;;;18.94;42.56;103193.91;5018465;28;20176;-41
2022/03/22 00:14:33;;;;;;;17.52;12.50;;;;;;;18.91;42.71;103186.06;5018641;28;20456;-40
2022/03/22 00:17:20;;;;;;;17.00;11.15;;;;;;;18.88;42.68;103188.94;5018487;28;20060;-41
2022/03/22 00:19:57;;;;;;;19.35;13.10;;;;;;;18.87;42.96;103192.59;5022660;28;20096;-41
2022/03/22 00:22:24;;;;;;;18.92;12.07;;;;;;;18.85;42.90;103189.13;5021629;28;20128;-41
2022/03/22 00:24:51;;;;;;;17.58;11.65;;;;;;;18.83;42.75;103189.25;5021085;28;20056;-41
2022/03/22 00:27:17;;;;;;;17.70;11.48;;;;;;;18.81;42.95;103185.78;5018976;28;20042;-41
2022/03/22 00:29:44;;;;;;;19.80;12.25;;;;;;;18.80;43.05;103193.97;5017588;28;20037;-41
2022/03/22 00:32:12;;;;;;;15.52;10.35;;;;;;;18.77;42.76;103188.78;5022471;28;20144;-41
2022/03/22 00:34:44;;;;;;;19.13;12.35;;;;;;;18.75;42.88;103186.19;5023058;28;20045;-41
2022/03/22 00:37:14;;;;;;;18.35;12.13;;;;;;;18.74;43.14;103188.03;5021619;28;20051;-41
2022/03/22 00:39:42;;;;;;;20.23;13.02;;;;;;;18.70;43.12;103189.19;5019956;28;20033;-41
2022/03/22 00:42:10;;;;;;;18.80;12.13;;;;;;;18.70;43.17;103194.56;5017781;28;20045;-40
2022/03/22 00:44:38;;;;;;;18.38;11.98;;;;;;;18.68;43.32;103188.38;5020159;28;20057;-41
2022/03/22 00:47:09;;;;;;;19.27;12.13;;;;;;;18.67;42.67;103188.50;5023781;28;20041;-41
2022/03/22 00:49:36;;;;;;;17.13;11.50;;;;;;;18.66;43.32;103190.31;5021660;28;20057;-40
2022/03/22 00:52:04;;;;;;;18.00;10.80;;;;;;;18.65;43.21;103193.09;5020501;28;20069;-41
2022/03/22 00:54:35;;;;;;;18.05;10.52;;;;;;;18.62;43.34;103186.13;5019668;28;20372;-40
2022/03/22 00:57:01;;;;;;;18.05;11.57;;;;;;;18.63;42.99;103192.34;5021363;28;20049;-41
2022/03/22 01:02:13;;;;;;;18.75;11.35;;;;;;;18.61;43.44;103186.19;5021580;28;20087;-41
2022/03/22 01:04:43;;;;;;;17.92;12.23;;;;;;;18.58;43.42;103184.59;5021507;28;20321;-40
2022/03/22 01:07:09;;;;;;;14.38;10.00;;;;;;;18.57;43.35;103193.59;5022857;28;20053;-41
2022/03/22 01:09:36;;;;;;;18.20;11.45;;;;;;;18.55;43.27;103195.53;5017129;28;20053;-40
2022/03/22 01:12:02;;;;;;;15.18;10.52;;;;;;;18.54;42.92;103193.81;5016609;28;20263;-40
2022/03/22 01:14:29;;;;;;;19.00;11.73;;;;;;;18.53;43.06;103193.91;5021240;28;20301;-41
2022/03/22 01:16:56;;;;;;;18.25;10.77;;;;;;;18.52;43.03;103198.41;5017769;28;20059;-39
2022/03/22 01:19:27;;;;;;;16.52;10.60;;;;;;;18.50;43.13;103187.78;5020947;28;20052;-40
2022/03/22 01:21:55;;;;;;;16.42;10.73;;;;;;;18.50;43.07;103197.66;5018750;28;20061;-40
2022/03/22 01:24:22;;;;;;;15.82;10.40;;;;;;;18.48;43.82;103194.19;5022310;28;21098;-40
2022/03/22 01:26:49;;;;;;;16.58;11.20;;;;;;;18.46;43.40;103188.94;5017892;28;20329;-40
2022/03/22 01:29:15;;;;;;;15.18;10.02;;;;;;;18.46;43.39;103186.25;5015220;28;20045;-41
2022/03/22 01:31:42;;;;;;;15.95;10.20;;;;;;;18.46;43.40;103188.94;5018342;28;20053;-41
2022/03/22 01:34:08;;;;;;;15.15;10.15;;;;;;;18.45;43.24;103192.59;5020577;28;20462;-40
2022/03/22 01:36:35;;;;;;;14.50;10.07;;;;;;;18.44;43.39;103190.00;5022926;28;20049;-40
2022/03/22 01:39:02;;;;;;;15.32;10.32;;;;;;;18.45;43.06;103194.38;5025122;28;20128;-40
2022/03/22 01:41:29;;;;;;;16.90;10.63;;;;;;;18.44;43.34;103190.84;5016949;28;20413;-40
2022/03/22 01:43:56;;;;;;;16.13;9.93;;;;;;;18.42;43.07;103189.25;5017678;28;20053;-40
2022/03/22 01:46:25;;;;;;;15.50;10.55;;;;;;;18.42;43.25;103182.03;5021313;28;20096;-40
2022/03/22 01:48:53;;;;;;;16.20;10.23;;;;;;;18.41;43.60;103182.13;5020863;28;20053;-40
2022/03/22 01:51:22;;;;;;;13.65;9.55;;;;;;;18.40;43.15;103183.94;5023168;28;21780;-40
2022/03/22 01:53:49;;;;;;;14.95;10.10;;;;;;;18.39;43.69;103184.06;5020024;28;20056;-40
2022/03/22 01:56:17;;;;;;;15.00;10.40;;;;;;;18.40;43.52;103183.09;5016591;28;20046;-40
2022/03/22 01:58:43;;;;;;;14.88;9.73;;;;;;;18.37;43.57;103170.75;5020728;28;20136;-40
2022/03/22 02:06:44;;;;;;;15.13;10.15;;;;;;;18.36;43.76;103174.38;5022204;28;20045;-40
2022/03/22 02:09:11;;;;;;;15.70;10.23;;;;;;;18.35;43.14;103178.03;5019415;28;20061;-40
2022/03/22 02:11:38;;;;;;;13.68;9.27;;;;;;;18.34;43.85;103172.75;5017193;28;20399;-40
2022/03/22 02:14:05;;;;;;;18.08;10.18;;;;;;;18.35;43.57;103177.16;5017730;28;20439;-40
2022/03/22 02:16:32;;;;;;;15.23;10.57;;;;;;;18.32;43.73;103167.47;5019976;28;20060;-41
2022/03/22 02:18:59;;;;;;;15.13;10.18;;;;;;;18.33;43.46;103168.34;5021447;28;20459;-40
2022/03/22 02:21:30;;;;;;;18.38;10.88;;;;;;;18.28;43.62;103168.63;5023297;28;20417;-40
2022/03/22 02:23:57;;;;;;;16.77;9.43;;;;;;;18.30;43.43;103173.94;5023935;28;20045;-40
2022/03/22 02:26:25;;;;;;;16.13;10.60;;;;;;;18.29;43.85;103162.31;5022255;28;20697;-40
2022/03/22 02:28:55;;;;;;;15.32;9.52;;;;;;;18.27;43.76;103160.69;5022739;28;20128;-41
2022/03/22 02:31:23;;;;;;;13.57;9.25;;;;;;;18.25;43.62;103161.66;5021425;28;20204;-40
2022/03/22 02:33:51;;;;;;;15.60;10.63;;;;;;;18.25;43.86;103167.03;5021254;28;20060;-40
2022/03/22 02:36:17;;;;;;;17.92;9.93;;;;;;;18.24;43.60;103165.28;5022398;28;20045;-39
2022/03/22 02:38:44;;;;;;;13.55;9.43;;;;;;;18.24;43.78;103159.06;5022754;28;20071;-40
2022/03/22 02:41:17;;;;;;;16.63;9.98;;;;;;;18.23;43.41;103157.34;5021120;28;20046;-40
2022/03/22 02:43:45;;;;;;;14.48;9.90;;;;;;;18.22;43.58;103159.16;5026418;28;20104;-40
2022/03/22 02:46:11;;;;;;;16.25;10.25;;;;;;;18.22;43.88;103161.00;5021022;28;20057;-40
2022/03/22 02:48:38;;;;;;;14.40;9.55;;;;;;;18.20;43.65;103168.25;5023723;28;20053;-40
2022/03/22 02:51:05;;;;;;;14.68;9.80;;;;;;;18.20;43.47;103166.44;5022581;28;20033;-40
2022/03/22 02:53:31;;;;;;;14.40;9.60;;;;;;;18.19;43.49;103166.53;5024037;28;20340;-40
2022/03/22 02:55:58;;;;;;;19.63;10.35;;;;;;;18.18;43.87;103170.19;5022126;28;20203;-40
2022/03/22 02:58:25;;;;;;;16.02;9.55;;;;;;;18.16;43.82;103172.97;5023479;28;20161;-40
2022/03/22 03:00:52;;;;;;;14.82;10.20;;;;;;;18.15;43.63;103171.25;5018271;28;20112;-40
2022/03/22 03:03:22;;;;;;;14.35;9.40;;;;;;;18.15;43.80;103168.56;5022922;28;20046;-40
2022/03/22 03:05:49;;;;;;;16.33;9.35;;;;;;;18.14;43.67;103169.53;5025694;28;20064;-40
2022/03/22 03:08:17;;;;;;;14.95;9.60;;;;;;;18.12;43.75;103176.81;5022220;28;20381;-40
2022/03/22 03:10:45;;;;;;;14.25;9.57;;;;;;;18.12;43.67;103174.13;5021492;28;20199;-41
2022/03/22 03:13:12;;;;;;;13.07;9.25;;;;;;;18.13;43.83;103170.50;5020226;28;20052;-40
2022/03/22 03:15:39;;;;;;;16.70;10.38;;;;;;;18.11;43.68;103175.09;5024703;28;20049;-40
2022/03/22 03:18:06;;;;;;;15.60;9.07;;;;;;;18.11;43.98;103167.03;5024244;28;20041;-41
2022/03/22 03:20:32;;;;;;;13.00;9.20;;;;;;;18.09;43.37;103166.28;5019517;28;20129;-40
2022/03/22 03:22:59;;;;;;;13.15;8.95;;;;;;;18.09;43.55;103170.75;5021398;28;20076;-40
2022/03/22 03:25:25;;;;;;;13.05;8.88;;;;;;;18.09;44.00;103170.75;5023200;28;20058;-40
2022/03/22 03:27:53;;;;;;;13.63;9.68;;;;;;;18.08;43.70;103169.03;5019952;28;20616;-40
2022/03/22 03:30:19;;;;;;;14.95;9.77;;;;;;;18.07;43.58;103173.56;5020187;28;20140;-40
2022/03/22 03:32:46;;;;;;;13.38;9.18;;;;;;;18.05;43.84;103170.13;5022908;28;20056;-40
2022/03/22 03:35:13;;;;;;;13.80;8.85;;;;;;;18.06;43.57;103170.97;5021560;28;20072;-40
2022/03/22 03:37:43;;;;;;;13.80;9.50;;;;;;;18.06;43.50;103169.16;5019722;28;20042;-40
2022/03/22 03:40:11;;;;;;;14.57;9.50;;;;;;;18.03;43.82;103172.03;5020321;28;20064;-40
2022/03/22 03:42:43;;;;;;;15.05;9.15;;;;;;;18.04;43.46;103167.50;5024320;28;20061;-40
2022/03/22 03:48:17;;;;;;;15.80;9.48;;;;;;;18.02;43.58;103166.75;4998631;28;20041;-40
2022/03/22 03:50:45;;;;;;;12.43;9.15;;;;;;;18.01;43.58;103168.59;5002474;28;20038;-40
2022/03/22 03:53:11;;;;;;;12.02;9.05;;;;;;;18.00;43.27;103173.06;5012057;28;20049;-40
2022/03/22 03:55:38;;;;;;;13.02;8.88;;;;;;;17.99;43.47;103174.03;5021780;28;20045;-40
2022/03/22 03:58:04;;;;;;;12.95;9.07;;;;;;;17.99;43.83;103173.19;5021206;28;20658;-40
2022/03/22 04:00:32;;;;;;;14.93;9.55;;;;;;;17.99;43.50;103181.22;5020929;28;20045;-40
2022/03/22 04:02:58;;;;;;;16.00;8.93;;;;;;;17.96;43.50;103178.72;5018115;28;20141;-40
2022/03/22 04:05:25;;;;;;;12.32;9.10;;;;;;;17.97;43.70;103180.47;5020878;28;20053;-40
2022/03/22 04:07:52;;;;;;;12.70;9.25;;;;;;;17.95;43.65;103177.88;5024525;28;20566;-40
2022/03/22 04:10:18;;;;;;;14.68;9.32;;;;;;;17.97;43.67;103183.16;5019747;28;20060;-40
2022/03/22 04:12:45;;;;;;;12.18;8.80;;;;;;;17.94;43.75;103183.34;5019867;28;20046;-40
2022/03/22 04:15:12;;;;;;;12.35;8.85;;;;;;;17.94;43.41;103183.34;5021082;28;20172;-40
2022/03/22 04:17:39;;;;;;;12.02;8.32;;;;;;;17.92;43.43;103186.09;5020470;28;20541;-41
2022/03/22 04:20:07;;;;;;;13.50;9.55;;;;;;;17.92;43.99;103180.75;5018987;28;20132;-40
2022/03/22 04:22:34;;;;;;;13.57;8.73;;;;;;;17.91;43.47;103189.75;5018653;28;20435;-40
2022/03/22 04:25:01;;;;;;;12.93;8.68;;;;;;;17.92;43.89;103186.09;5020114;28;20437;-40
2022/03/22 04:33:15;;;;;;;11.93;8.07;;;;;;;17.90;43.64;103187.19;5019151;28;20606;-40
2022/03/22 04:35:41;;;;;;;13.45;8.32;;;;;;;17.90;43.62;103193.41;5021416;28;20037;-40
2022/03/22 04:38:08;;;;;;;11.55;8.15;;;;;;;17.88;43.72;103194.44;5022438;28;20136;-40
2022/03/22 04:40:35;;;;;;;13.25;8.55;;;;;;;17.88;43.40;103187.25;5020568;28;20045;-40
2022/03/22 04:43:01;;;;;;;12.40;8.25;;;;;;;17.90;43.56;103192.53;5017473;28;20337;-40
2022/03/22 04:45:28;;;;;;;14.52;8.63;;;;;;;17.96;43.47;103186.78;5023417;28;20048;-40
2022/03/22 04:47:55;;;;;;;11.68;8.52;;;;;;;18.05;43.61;103191.59;5019121;28;20058;-40
2022/03/22 04:50:21;;;;;;;14.25;7.72;;;;;;;18.11;43.45;103190.31;5022251;28;20052;-40
2022/03/22 04:58:19;;;;;;;13.73;8.32;;;;;;;18.38;43.96;103193.94;5015157;28;20467;-40
2022/03/22 05:00:46;;;;;;;13.48;8.85;;;;;;;18.46;44.31;103194.31;5015436;28;20053;-40
2022/03/22 05:03:13;;;;;;;16.15;9.40;;;;;;;18.54;44.08;103193.81;5020409;28;20125;-40
2022/03/22 05:08:25;;;;;;;15.18;9.32;;;;;;;18.71;44.52;103195.44;5022183;28;20058;-40
2022/03/22 05:10:54;;;;;;;14.90;10.07;;;;;;;18.77;44.02;103197.69;5023368;28;20037;-40
2022/03/22 05:13:21;;;;;;;15.85;9.55;;;;;;;18.83;44.09;103204.50;5021580;28;20132;-40
2022/03/22 05:15:47;;;;;;;12.98;8.65;;;;;;;18.88;44.14;103208.59;5023508;28;20120;-40
2022/03/22 05:18:15;;;;;;;14.60;8.60;;;;;;;18.92;43.80;103212.81;5019679;28;20041;-40
2022/03/22 05:20:41;;;;;;;14.85;9.85;;;;;;;18.95;43.82;103206.38;5024659;28;20125;-39
2022/03/22 05:23:08;;;;;;;15.52;9.63;;;;;;;18.97;44.04;103213.38;5025871;28;20046;-40
2022/03/22 05:25:35;;;;;;;17.63;9.45;;;;;;;18.98;43.82;103215.09;5027162;28;20092;-40
2022/03/22 05:28:03;;;;;;;15.25;9.75;;;;;;;18.98;43.94;103207.03;5026135;28;20365;-40
2022/03/22 05:30:31;;;;;;;13.07;9.30;;;;;;;18.98;44.19;103212.41;5021839;28;20695;-40
2022/03/22 05:32:58;;;;;;;14.15;9.10;;;;;;;18.98;43.86;103211.56;5023064;28;20462;-40
2022/03/22 05:35:25;;;;;;;14.15;9.10;;;;;;;18.97;43.93;103212.50;5023142;28;20117;-40
2022/03/22 05:37:51;;;;;;;14.25;9.80;;;;;;;18.96;43.79;103224.22;5026474;28;20121;-41
2022/03/22 05:40:18;;;;;;;13.30;9.43;;;;;;;18.93;43.38;103217.22;5026537;28;20115;-41
2022/03/22 05:42:45;;;;;;;15.85;9.75;;;;;;;18.92;43.31;103217.31;5025532;28;20042;-40
2022/03/22 05:45:12;;;;;;;14.50;9.32;;;;;;;18.88;43.40;103219.34;5025124;28;20043;-40
2022/03/22 05:47:39;;;;;;;17.25;9.55;;;;;;;18.88;42.95;103223.88;5025144;28;20473;-41
2022/03/22 05:50:07;;;;;;;15.90;9.48;;;;;;;18.84;43.11;103223.22;5023779;28;20053;-41
2022/03/22 05:52:33;;;;;;;14.73;9.93;;;;;;;18.83;43.63;103215.25;5025371;28;20040;-40
2022/03/22 05:55:00;;;;;;;15.00;10.05;;;;;;;18.81;43.29;103219.84;5024195;28;20068;-40
2022/03/22 05:57:27;;;;;;;14.10;9.27;;;;;;;18.78;43.52;103228.13;5028379;28;20049;-40
2022/03/22 05:59:53;;;;;;;15.57;9.77;;;;;;;18.76;43.54;103230.03;5028596;28;20128;-40
2022/03/22 06:02:20;;;;;;;13.40;9.57;;;;;;;18.72;43.28;103224.88;5027173;28;20046;-40
2022/03/22 06:04:48;;;;;;;12.48;8.77;;;;;;;18.71;43.43;103236.59;5028562;28;20038;-40
2022/03/22 06:07:15;;;;;;;12.27;8.80;;;;;;;18.68;43.52;103230.50;5029771;28;20512;-40
2022/03/22 06:09:41;;;;;;;18.65;9.07;;;;;;;18.66;43.10;103241.38;5027313;28;20072;-40
2022/03/22 06:12:08;;;;;;;11.65;8.25;;;;;;;18.65;43.32;103233.38;5029964;28;20045;-40
2022/03/22 06:14:35;;;;;;;12.98;9.15;;;;;;;18.62;43.73;103242.53;5030689;28;20037;-40
2022/03/22 06:17:01;;;;;;;13.60;8.88;;;;;;;18.61;43.78;103237.22;5028715;28;20045;-40
2022/03/22 06:19:28;;;;;;;12.13;8.93;;;;;;;18.57;43.35;103236.56;5030959;28;20050;-40
2022/03/22 06:21:59;;;;;;;13.05;9.02;;;;;;;18.55;43.49;103243.88;5029526;28;20041;-40
2022/03/22 06:24:26;;;;;;;12.98;8.82;;;;;;;18.52;43.54;103238.69;5028858;28;20041;-40
2022/03/22 06:26:53;;;;;;;16.77;10.23;;;;;;;18.49;43.87;103247.84;5028987;28;20132;-40
2022/03/22 06:29:19;;;;;;;12.00;8.50;;;;;;;18.48;43.80;103247.91;5028414;28;20089;-40
2022/03/22 06:31:46;;;;;;;11.55;8.48;;;;;;;18.46;43.80;103253.38;5028248;28;20041;-40
2022/03/22 06:34:12;;;;;;;13.07;8.60;;;;;;;18.45;43.58;103253.47;5029574;28;20041;-40
2022/03/22 06:36:39;;;;;;;13.70;9.07;;;;;;;18.44;43.95;103252.59;5026175;28;20443;-40
2022/03/22 06:39:05;;;;;;;14.40;9.02;;;;;;;18.43;44.08;103250.03;5028336;28;20075;-40
2022/03/22 06:41:32;;;;;;;12.48;8.13;;;;;;;18.43;43.53;103250.03;5027607;28;20037;-40
2022/03/22 06:43:59;;;;;;;12.60;9.18;;;;;;;18.43;43.98;103256.25;5029816;28;20067;-40
2022/03/22 06:46:26;;;;;;;13.35;9.35;;;;;;;18.43;43.67;103263.47;5027469;28;20059;-40
2022/03/22 06:48:53;;;;;;;14.43;8.52;;;;;;;18.45;43.55;103254.34;5027960;28;20419;-40
2022/03/22 06:51:25;;;;;;;12.05;8.65;;;;;;;18.47;43.46;103257.78;5029494;28;20053;-40
2022/03/22 06:53:52;;;;;;;12.43;9.23;;;;;;;18.46;43.90;103261.44;5022125;28;20053;-40
2022/03/22 06:56:18;;;;;;;14.77;9.70;;;;;;;18.49;43.54;103265.75;5024727;28;20045;-40
2022/03/22 06:58:45;;;;;;;14.95;9.77;;;;;;;18.48;43.53;103264.03;5023771;28;20136;-41
2022/03/22 07:01:11;;;;;;;13.10;8.93;;;;;;;18.49;43.26;103263.94;5025204;28;20124;-40
2022/03/22 07:03:43;;;;;;;14.65;9.38;;;;;;;18.50;43.26;103264.81;5022793;28;20063;-41
2022/03/22 07:06:09;;;;;;;13.05;8.80;;;;;;;18.50;43.39;103260.28;5023567;28;20143;-41
2022/03/22 07:08:36;;;;;;;13.90;9.43;;;;;;;18.53;43.41;103263.72;5027874;28;20052;-40
2022/03/22 07:13:49;;;;;;;13.40;8.60;;;;;;;18.54;43.37;103262.78;5026319;28;20125;-40
2022/03/22 07:16:16;;;;;;;12.73;8.88;;;;;;;18.56;43.24;103261.72;5024025;28;20256;-40
2022/03/22 07:18:43;;;;;;;14.32;10.05;;;;;;;18.57;43.12;103265.25;5024063;28;20050;-40
2022/03/22 07:21:09;;;;;;;14.60;9.18;;;;;;;18.58;43.56;103265.19;5026142;28;20049;-41
2022/03/22 07:23:38;;;;;;;15.38;8.77;;;;;;;18.61;43.39;103270.31;5025351;28;20093;-41
2022/03/22 07:26:04;;;;;;;13.00;8.93;;;;;;;18.62;43.18;103266.69;5026948;28;20085;-40
2022/03/22 07:28:31;;;;;;;13.52;8.82;;;;;;;18.64;43.33;103269.28;5026622;28;20041;-40
2022/03/22 07:30:58;;;;;;;12.98;7.88;;;;;;;18.65;43.07;103266.50;5027732;28;20051;-40
2022/03/22 07:33:25;;;;;;;14.63;9.25;;;;;;;18.68;43.37;103276.19;5024081;28;20332;-40
2022/03/22 07:35:52;;;;;;;14.27;9.23;;;;;;;18.69;43.38;103275.22;5027360;28;20046;-40
2022/03/22 07:38:18;;;;;;;13.88;9.05;;;;;;;18.71;42.84;103281.41;5023112;28;20132;-39
2022/03/22 07:40:45;;;;;;;12.77;9.20;;;;;;;18.70;42.46;103280.53;5024431;28;20421;-40
2022/03/22 07:43:12;;;;;;;13.52;8.65;;;;;;;18.72;42.91;103283.13;5023294;28;20133;-39
2022/03/22 07:45:38;;;;;;;18.75;9.90;;;;;;;18.73;42.71;103277.66;5023518;28;20110;-39
2022/03/22 07:48:05;;;;;;;15.38;9.63;;;;;;;18.75;43.18;103280.25;5027090;28;20083;-39
2022/03/22 07:53:16;;;;;;;13.82;9.23;;;;;;;18.77;42.46;103286.34;5022517;28;20067;-39
2022/03/22 07:55:43;;;;;;;15.80;9.65;;;;;;;18.79;42.52;103289.81;5023645;28;20045;-39
2022/03/22 07:58:11;;;;;;;15.73;9.52;;;;;;;18.80;42.36;103288.84;5023108;28;20142;-39
2022/03/22 08:00:40;;;;;;;14.25;9.63;;;;;;;18.83;42.81;103293.19;5023267;28;20060;-39
2022/03/22 08:03:10;;;;;;;15.38;9.50;;;;;;;18.85;42.83;103291.25;5023231;28;20142;-40
2022/03/22 08:05:40;;;;;;;14.93;9.38;;;;;;;18.86;42.88;103293.84;5025000;28;20369;-40
2022/03/22 08:08:07;;;;;;;14.93;9.75;;;;;;;18.88;42.76;103293.72;5023937;28;20213;-40
2022/03/22 08:10:54;;;;;;;13.05;8.77;;;;;;;18.91;42.93;103297.09;5025602;28;20072;-40
2022/03/22 08:13:20;;;;;;;20.25;9.02;;;;;;;18.93;43.71;103295.16;5022168;28;20128;-40
2022/03/22 08:15:47;;;;;;;58.08;10.38;;;;;;;18.95;43.33;103295.94;5021947;28;20072;-40
2022/03/22 08:18:16;;;;;;;39.90;12.55;;;;;;;18.97;43.26;103299.41;5020465;28;20384;-40
2022/03/22 08:20:43;;;;;;;31.75;11.70;;;;;;;19.00;43.15;103295.63;5021490;28;20059;-40
2022/03/22 08:23:10;;;;;;;33.42;12.63;;;;;;;19.02;43.41;103301.78;5021798;28;20076;-41
2022/03/22 08:25:39;;;;;;;30.80;10.93;;;;;;;19.05;42.92;103296.19;5023338;28;20049;-40
2022/03/22 08:28:08;;;;;;;33.42;10.82;;;;;;;19.06;42.98;103303.31;5022324;28;20141;-40
2022/03/22 08:30:36;;;;;;;24.52;11.57;;;;;;;19.09;43.54;103304.91;5023524;28;20053;-40
2022/03/22 08:33:08;;;;;;;26.30;10.98;;;;;;;19.11;43.22;103306.53;5022925;28;20041;-40
2022/03/22 08:35:40;;;;;;;29.17;11.70;;;;;;;19.12;43.20;103310.94;5022131;28;20045;-40
2022/03/22 08:38:06;;;;;;;29.23;11.32;;;;;;;19.14;43.40;103305.50;5020955;28;20044;-40
2022/03/22 08:40:33;;;;;;;26.38;12.07;;;;;;;19.15;43.38;103308.06;5023378;28;20103;-40
2022/03/22 08:43:02;;;;;;;26.00;11.40;;;;;;;19.17;43.50;103305.25;5023098;28;20050;-40
2022/03/22 08:45:32;;;;;;;27.40;11.70;;;;;;;19.18;42.50;103307.00;5025134;28;20052;-40
2022/03/22 08:48:00;;;;;;;26.88;11.55;;;;;;;19.20;42.51;103310.44;5019226;28;20454;-40
2022/03/22 08:50:27;;;;;;;17.73;11.75;;;;;;;19.23;43.14;103312.94;5020693;28;20149;-39
2022/03/22 08:52:56;;;;;;;24.00;10.75;;;;;;;19.25;42.63;103316.38;5022257;28;20129;-39
2022/03/22 08:55:24;;;;;;;19.77;10.10;;;;;;;19.24;42.72;103304.75;5022025;28;20100;-40
2022/03/22 08:57:52;;;;;;;24.42;12.48;;;;;;;19.27;42.69;103305.53;5023209;28;20049;-40
2022/03/22 09:00:20;;;;;;;21.80;10.80;;;;;;;19.28;42.41;103318.00;5020789;28;20230;-40
2022/03/22 09:02:48;;;;;;;20.65;10.73;;;;;;;19.29;42.51;103308.97;5020369;28;20048;-39
2022/03/22 09:08:05;;;;;;;23.25;10.63;;;;;;;19.32;42.31;103317.69;5026647;28;20144;-39
2022/03/22 09:10:34;;;;;;;18.98;9.95;;;;;;;19.33;42.31;103322.09;5021667;28;20046;-40
2022/03/22 09:13:01;;;;;;;18.23;10.43;;;;;;;19.34;42.90;103320.31;5024679;28;20131;-40
2022/03/22 09:15:28;;;;;;;17.65;9.52;;;;;;;19.36;42.63;103312.97;5021623;28;20057;-39
2022/03/22 09:17:57;;;;;;;20.30;10.32;;;;;;;19.36;42.42;103316.53;5019070;28;20370;-39
2022/03/22 09:20:31;;;;;;;18.70;10.25;;;;;;;19.38;42.08;103308.38;5018332;28;20046;-39
2022/03/22 09:23:02;;;;;;;22.02;10.38;;;;;;;19.39;42.28;103310.94;5021300;28;20329;-39
2022/03/22 09:25:28;;;;;;;18.60;9.43;;;;;;;19.41;42.16;103309.00;5025186;28;20086;-39
2022/03/22 09:27:56;;;;;;;17.73;9.48;;;;;;;19.43;42.76;103309.78;5026548;28;20137;-40
2022/03/22 09:30:24;;;;;;;17.55;9.90;;;;;;;19.43;43.40;103304.41;5022850;28;20049;-40
2022/03/22 09:32:51;;;;;;;16.40;9.27;;;;;;;19.46;42.25;103303.34;5022098;28;20112;-40
2022/03/22 09:35:19;;;;;;;16.60;9.88;;;;;;;19.48;42.75;103304.09;5023752;28;20152;-39
2022/03/22 09:37:48;;;;;;;17.70;9.10;;;;;;;19.51;42.27;103306.56;5021559;28;20425;-40
2022/03/22 09:40:17;;;;;;;18.30;9.23;;;;;;;19.53;42.84;103301.94;5018711;28;20057;-39
2022/03/22 09:42:45;;;;;;;13.82;8.82;;;;;;;19.57;42.46;103303.47;5022130;28;20038;-40
2022/03/22 09:45:17;;;;;;;15.13;9.40;;;;;;;19.61;42.59;103306.81;5022121;28;20073;-40
2022/03/22 09:47:46;;;;;;;14.20;8.52;;;;;;;19.64;42.28;103302.13;5020994;28;20052;-39
2022/03/22 09:50:18;;;;;;;16.50;8.60;;;;;;;19.68;43.25;103314.41;5021345;28;20053;-40
2022/03/22 09:52:44;;;;;;;17.02;9.07;;;;;;;19.71;43.02;103308.81;5021462;28;20064;-40
2022/03/22 09:55:13;;;;;;;15.23;8.55;;;;;;;19.75;42.50;103305.91;5023286;28;20132;-40
2022/03/22 09:57:40;;;;;;;14.63;8.50;;;;;;;19.77;42.95;103304.81;5018982;28;20052;-40
2022/03/22 10:00:09;;;;;;;17.02;7.70;;;;;;;19.80;42.66;103298.38;5019633;28;20050;-39
2022/03/22 10:02:36;;;;;;;13.10;7.75;;;;;;;19.82;42.25;103305.41;5019248;28;20452;-39
2022/03/22 10:05:04;;;;;;;13.93;8.75;;;;;;;19.86;42.29;103300.63;5021779;28;20084;-40
2022/03/22 10:07:30;;;;;;;14.27;8.23;;;;;;;19.88;42.21;103299.56;5023077;28;20042;-40
2022/03/22 10:10:02;;;;;;;17.90;8.07;;;;;;;19.92;42.84;103297.53;5022546;28;20107;-40
2022/03/22 10:12:34;;;;;;;13.77;8.05;;;;;;;19.94;42.25;103287.53;5020879;28;20046;-40
2022/03/22 10:15:14;;;;;;;12.93;7.90;;;;;;;19.97;42.61;103287.31;5020504;28;20120;-40
2022/03/22 10:17:43;;;;;;;15.85;8.38;;;;;;;19.99;42.05;103290.75;5023900;28;20053;-40
2022/03/22 10:20:21;;;;;;;13.02;8.05;;;;;;;20.01;42.51;103288.81;5020044;28;20434;-40
2022/03/22 10:22:56;;;;;;;13.43;7.90;;;;;;;20.05;42.39;103295.69;5021964;28;20054;-40
2022/03/22 10:25:23;;;;;;;11.90;7.18;;;;;;;20.07;41.87;103288.41;5024549;28;20157;-40
2022/03/22 10:27:54;;;;;;;11.95;7.20;;;;;;;20.09;42.44;103283.75;5023046;28;20140;-40
2022/03/22 10:30:24;;;;;;;13.70;7.53;;;;;;;20.11;41.81;103286.34;5025356;28;20096;-39
2022/03/22 10:32:51;;;;;;;13.80;7.60;;;;;;;20.12;41.85;103283.53;5024798;28;20041;-40
2022/03/22 10:35:27;;;;;;;12.35;7.65;;;;;;;20.14;41.61;103276.22;5023996;28;20042;-40
2022/03/22 10:38:09;;;;;;;11.82;7.50;;;;;;;20.16;42.09;103278.81;5026366;28;20057;-40
2022/03/22 10:40:41;;;;;;;10.45;7.00;;;;;;;20.18;42.27;103276.84;5023036;28;20132;-40
2022/03/22 10:43:10;;;;;;;11.80;7.50;;;;;;;20.20;41.60;103283.00;5027033;28;20033;-40
2022/03/22 10:45:45;;;;;;;11.73;6.70;;;;;;;20.19;42.16;103287.53;5027378;28;20068;-40
2022/03/22 10:48:20;;;;;;;11.75;7.45;;;;;;;20.20;42.38;103286.56;5029164;28;20362;-40
2022/03/22 10:50:48;;;;;;;12.40;7.75;;;;;;;20.24;41.84;103281.81;5027416;28;20141;-40
2022/03/22 10:53:17;;;;;;;11.98;7.50;;;;;;;20.25;41.75;103288.06;5029328;28;20041;-40
2022/03/22 10:55:45;;;;;;;12.02;7.55;;;;;;;20.26;41.82;103287.06;5027544;28;20388;-40
2022/03/22 10:58:20;;;;;;;13.65;7.72;;;;;;;20.26;41.98;103281.69;5026327;28;20133;-40
2022/03/22 11:00:48;;;;;;;11.40;6.82;;;;;;;20.28;41.83;103282.47;5025637;28;20164;-40
2022/03/22 11:03:17;;;;;;;12.52;7.05;;;;;;;20.28;42.02;103285.16;5025888;28;20157;-40
2022/03/22 11:05:53;;;;;;;11.20;7.22;;;;;;;20.28;41.62;103283.31;5031228;28;20075;-40
2022/03/22 11:08:25;;;;;;;11.63;6.82;;;;;;;20.31;41.83;103282.25;5023917;28;20133;-40
2022/03/22 11:10:55;;;;;;;10.95;6.60;;;;;;;20.31;41.70;103288.50;5024492;28;20045;-40
2022/03/22 11:13:23;;;;;;;13.05;6.97;;;;;;;20.31;41.26;103280.41;5023358;28;20140;-40
2022/03/22 11:15:51;;;;;;;12.32;6.90;;;;;;;20.34;41.85;103284.69;5021874;28;20049;-40
2022/03/22 11:18:21;;;;;;;10.82;6.63;;;;;;;20.35;42.02;103283.75;5022055;28;20065;-40
2022/03/22 11:20:49;;;;;;;10.75;6.18;;;;;;;20.36;41.28;103286.31;5022383;28;20049;-40
2022/03/22 11:23:23;;;;;;;13.75;6.75;;;;;;;20.37;41.52;103279.97;5022303;28;20132;-40
2022/03/22 11:25:50;;;;;;;11.88;6.47;;;;;;;20.39;41.67;103285.25;5022551;28;20196;-41
2022/03/22 11:28:22;;;;;;;14.55;7.03;;;;;;;20.39;41.79;103275.34;5027300;28;20512;-41
2022/03/22 11:30:51;;;;;;;10.38;6.47;;;;;;;20.40;41.19;103277.06;5024831;28;20065;-40
2022/03/22 11:36:16;;;;;;;9.85;6.65;;;;;;;20.41;42.13;103267.13;5024188;28;20045;-40
2022/03/22 11:38:44;;;;;;;8.52;5.82;;;;;;;20.43;41.54;103270.59;5028675;28;20049;-40
2022/03/22 11:44:19;;;;;;;9.63;5.82;;;;;;;20.44;41.96;103265.09;5029475;28;20049;-40
2022/03/22 11:46:48;;;;;;;8.80;5.80;;;;;;;20.45;41.81;103264.09;5027054;28;20081;-40
2022/03/22 11:49:20;;;;;;;8.75;5.78;;;;;;;20.47;41.52;103269.41;5025744;28;20107;-40
2022/03/22 11:51:50;;;;;;;8.18;5.57;;;;;;;20.47;41.91;103264.00;5025977;28;20046;-40
2022/03/22 11:54:19;;;;;;;10.05;6.20;;;;;;;20.49;41.31;103258.53;5025742;28;20457;-40
2022/03/22 11:56:56;;;;;;;10.35;6.10;;;;;;;20.49;41.49;103259.41;5028422;28;20124;-40
2022/03/22 11:59:27;;;;;;;8.98;6.43;;;;;;;20.50;41.13;103261.09;5024075;28;20124;-41